Time;durP1;ratioP1;P1;durP2;ratioP2;P2;SDS_P1;SDS_P2;PMS_P1;PMS_P2;Temp;Humidity;BMP_temperature;BMP_pressure;BME280_temperature;BME280_humidity;BME280_pressure;Samples;Min_cycle;Max_cycle;Signal;HPM_P1;HPM_P2
2022/03/04 00:01:13;;;;;;;49.67;14.67;;;2.10;15.00;;;;;;5011666;28;20476;-62
2022/03/04 00:03:43;;;;;;;49.40;15.80;;;2.00;15.00;;;;;;5024317;28;20482;-63
2022/03/04 00:06:09;;;;;;;49.63;15.03;;;2.00;15.30;;;;;;5015494;28;20463;-63
2022/03/04 00:08:36;;;;;;;51.63;14.80;;;2.00;15.20;;;;;;5014240;28;20463;-64
2022/03/04 00:11:03;;;;;;;52.90;15.13;;;2.00;15.30;;;;;;5022221;28;20502;-65
2022/03/04 00:13:30;;;;;;;54.90;17.23;;;2.00;15.30;;;;;;5021943;28;20459;-64
2022/03/04 00:15:57;;;;;;;51.70;15.90;;;1.90;15.40;;;;;;5020369;28;20460;-62
2022/03/04 00:18:24;;;;;;;54.33;17.70;;;1.90;15.50;;;;;;5022830;28;20463;-64
2022/03/04 00:20:52;;;;;;;52.20;15.27;;;1.90;15.50;;;;;;5019417;28;20474;-64
2022/03/04 00:23:20;;;;;;;51.97;17.37;;;1.80;15.60;;;;;;5022430;28;20455;-62
2022/03/04 00:25:47;;;;;;;51.73;17.17;;;1.80;15.60;;;;;;5017911;28;20460;-65
2022/03/04 00:28:13;;;;;;;53.30;17.10;;;1.70;15.70;;;;;;5024683;28;20470;-62
2022/03/04 00:30:40;;;;;;;52.87;16.23;;;1.70;15.80;;;;;;5018909;28;20470;-65
2022/03/04 00:33:07;;;;;;;51.97;16.20;;;1.70;15.80;;;;;;5019177;28;21241;-63
2022/03/04 00:35:34;;;;;;;52.63;16.00;;;1.70;15.90;;;;;;5011574;28;20478;-64
2022/03/04 00:38:02;;;;;;;52.33;16.00;;;1.60;15.90;;;;;;5021749;28;20467;-64
2022/03/04 00:40:29;;;;;;;54.70;15.70;;;1.60;15.90;;;;;;5016852;28;20459;-66
2022/03/04 00:42:56;;;;;;;51.80;15.03;;;1.60;15.90;;;;;;5020646;28;20995;-64
2022/03/04 00:45:23;;;;;;;50.20;14.87;;;1.50;16.20;;;;;;5020260;28;21174;-65
2022/03/04 00:47:50;;;;;;;49.80;15.80;;;1.40;16.40;;;;;;5020218;28;20475;-64
2022/03/04 00:50:16;;;;;;;52.30;15.73;;;1.40;16.40;;;;;;5023157;28;20962;-64
2022/03/04 00:52:43;;;;;;;51.57;14.43;;;1.40;16.30;;;;;;5017260;28;20496;-64
2022/03/04 00:55:11;;;;;;;49.33;14.70;;;1.40;16.60;;;;;;5024421;28;20463;-67
2022/03/04 00:57:38;;;;;;;50.40;13.47;;;1.40;16.60;;;;;;5025335;28;20474;-65
2022/03/04 01:00:06;;;;;;;49.50;14.17;;;1.40;16.60;;;;;;5021871;28;20464;-65
2022/03/04 01:02:33;;;;;;;52.73;14.97;;;1.30;16.60;;;;;;5023198;28;20471;-65
2022/03/04 01:05:00;;;;;;;50.17;15.20;;;1.30;16.80;;;;;;5018641;28;20488;-65
2022/03/04 01:07:27;;;;;;;54.03;17.27;;;1.30;16.80;;;;;;5024190;28;20488;-65
2022/03/04 01:09:53;;;;;;;53.40;14.40;;;1.30;16.70;;;;;;5020459;28;20463;-64
2022/03/04 01:12:21;;;;;;;53.53;15.40;;;1.30;16.70;;;;;;5022280;28;20490;-64
2022/03/04 01:14:51;;;;;;;53.87;17.70;;;1.30;16.80;;;;;;5023197;28;20459;-64
2022/03/04 01:17:18;;;;;;;59.30;17.20;;;1.30;16.80;;;;;;5020940;28;20466;-64
2022/03/04 01:19:45;;;;;;;50.00;14.30;;;1.20;16.90;;;;;;5020539;28;20463;-64
2022/03/04 01:22:11;;;;;;;48.63;13.90;;;1.20;16.90;;;;;;5016782;28;20482;-66
2022/03/04 01:24:38;;;;;;;52.87;14.57;;;1.20;16.90;;;;;;5016475;28;20494;-64
2022/03/04 01:27:05;;;;;;;53.53;14.27;;;1.20;16.80;;;;;;5017135;28;20470;-65
2022/03/04 01:29:33;;;;;;;55.03;18.70;;;1.20;16.90;;;;;;5020708;28;20463;-64
2022/03/04 01:32:00;;;;;;;51.27;16.47;;;1.20;17.00;;;;;;5015079;28;20484;-64
2022/03/04 01:34:26;;;;;;;52.13;16.27;;;1.20;17.00;;;;;;5022531;28;20462;-65
2022/03/04 01:36:53;;;;;;;52.20;15.53;;;1.20;17.10;;;;;;5020294;28;20467;-63
2022/03/04 01:39:20;;;;;;;53.60;16.23;;;1.10;17.40;;;;;;5025203;28;20467;-63
2022/03/04 01:41:47;;;;;;;51.30;16.00;;;1.10;17.20;;;;;;5019059;28;21178;-64
2022/03/04 01:44:13;;;;;;;48.27;14.30;;;1.10;17.10;;;;;;5018092;28;20488;-65
2022/03/04 01:46:41;;;;;;;52.87;15.47;;;1.10;17.20;;;;;;5017186;28;20458;-65
2022/03/04 01:49:08;;;;;;;57.60;17.17;;;1.00;17.20;;;;;;5017084;28;20464;-62
2022/03/04 01:51:35;;;;;;;48.97;15.73;;;1.00;17.20;;;;;;5022804;28;20494;-65
2022/03/04 01:54:02;;;;;;;51.27;15.63;;;1.00;17.40;;;;;;5026254;28;20459;-66
2022/03/04 01:56:28;;;;;;;51.37;17.43;;;1.00;17.50;;;;;;5020687;28;20987;-65
2022/03/04 01:58:55;;;;;;;49.70;14.20;;;0.90;17.60;;;;;;5027099;28;20463;-64
2022/03/04 02:01:22;;;;;;;56.80;16.40;;;0.90;18.00;;;;;;5023547;28;20479;-64
2022/03/04 02:03:50;;;;;;;63.07;15.90;;;0.90;17.60;;;;;;5022835;28;20460;-65
2022/03/04 02:06:17;;;;;;;48.10;12.80;;;0.90;17.60;;;;;;5025501;28;20498;-65
2022/03/04 02:08:44;;;;;;;52.80;15.23;;;0.80;17.60;;;;;;5025783;28;21236;-64
2022/03/04 02:11:11;;;;;;;54.90;14.93;;;0.80;17.70;;;;;;5024890;28;20479;-64
2022/03/04 02:13:39;;;;;;;50.13;13.63;;;0.80;17.70;;;;;;5023251;28;20481;-63
2022/03/04 02:16:14;;;;;;;50.60;13.57;;;0.80;17.70;;;;;;5025447;28;20450;-68
2022/03/04 02:18:41;;;;;;;47.80;13.27;;;0.80;17.60;;;;;;5020525;28;20469;-63
2022/03/04 02:21:13;;;;;;;52.43;16.07;;;0.80;17.70;;;;;;5022888;28;20510;-65
2022/03/04 02:23:42;;;;;;;52.63;14.53;;;0.80;17.70;;;;;;5021316;28;20466;-65
2022/03/04 02:26:08;;;;;;;50.70;14.07;;;0.80;17.80;;;;;;5023699;28;20495;-63
2022/03/04 02:28:35;;;;;;;51.37;14.67;;;0.80;17.80;;;;;;5019742;28;20467;-64
2022/03/04 02:31:02;;;;;;;53.63;14.63;;;0.80;18.10;;;;;;5022859;28;20490;-63
2022/03/04 02:33:29;;;;;;;51.60;16.60;;;0.80;17.90;;;;;;5022731;28;20466;-64
2022/03/04 02:35:55;;;;;;;49.17;14.07;;;0.70;17.90;;;;;;5023481;28;20844;-64
2022/03/04 02:38:22;;;;;;;51.70;15.47;;;0.80;17.90;;;;;;5017934;28;20463;-62
2022/03/04 02:40:51;;;;;;;53.60;15.60;;;0.70;17.70;;;;;;5020965;28;20471;-65
2022/03/04 02:43:17;;;;;;;51.27;13.80;;;0.70;17.90;;;;;;5025042;28;20541;-64
2022/03/04 02:45:44;;;;;;;54.13;15.37;;;0.70;17.90;;;;;;5025324;28;20867;-64
2022/03/04 02:48:11;;;;;;;51.57;15.23;;;0.70;17.90;;;;;;5023824;28;20463;-65
2022/03/04 02:50:38;;;;;;;53.03;14.90;;;0.60;17.80;;;;;;5019663;28;20477;-64
2022/03/04 02:53:04;;;;;;;53.13;16.40;;;0.60;17.90;;;;;;5020814;28;21179;-63
2022/03/04 02:55:31;;;;;;;49.17;14.60;;;0.60;17.80;;;;;;5021450;28;20463;-63
2022/03/04 02:57:59;;;;;;;49.93;13.67;;;0.60;18.00;;;;;;5025864;28;20470;-65
2022/03/04 03:00:26;;;;;;;55.37;16.63;;;0.60;18.10;;;;;;5025028;28;20473;-64
2022/03/04 03:02:52;;;;;;;51.83;14.90;;;0.60;17.90;;;;;;5025220;28;20848;-64
2022/03/04 03:05:20;;;;;;;55.77;16.63;;;0.60;18.00;;;;;;5023741;28;20494;-63
2022/03/04 03:07:46;;;;;;;53.60;15.53;;;0.50;18.00;;;;;;5024144;28;20470;-65
2022/03/04 03:10:14;;;;;;;53.07;16.07;;;0.50;18.10;;;;;;5024605;28;20465;-63
2022/03/04 03:12:42;;;;;;;50.40;15.77;;;0.50;18.10;;;;;;5016867;28;20563;-64
2022/03/04 03:15:11;;;;;;;50.90;15.27;;;0.50;18.20;;;;;;5026474;28;20463;-63
2022/03/04 03:17:38;;;;;;;55.87;15.97;;;0.40;18.30;;;;;;5023124;28;20466;-64
2022/03/04 03:20:07;;;;;;;54.40;15.80;;;0.40;18.30;;;;;;5022826;28;20466;-66
2022/03/04 03:22:34;;;;;;;55.53;17.23;;;0.40;18.30;;;;;;5024320;28;20478;-66
2022/03/04 03:25:00;;;;;;;53.40;14.87;;;0.40;18.50;;;;;;5022148;28;20491;-63
2022/03/04 03:27:27;;;;;;;54.37;15.50;;;0.40;18.60;;;;;;5024308;28;20486;-63
2022/03/04 03:29:54;;;;;;;53.20;16.27;;;0.40;18.80;;;;;;5026915;28;20478;-66
2022/03/04 03:32:22;;;;;;;54.23;16.43;;;0.40;18.80;;;;;;5020030;28;20514;-63
2022/03/04 03:34:49;;;;;;;54.20;16.30;;;0.40;19.30;;;;;;5018399;28;20459;-62
2022/03/04 03:37:16;;;;;;;53.93;15.87;;;0.40;19.60;;;;;;5022195;28;20518;-64
2022/03/04 03:39:43;;;;;;;55.00;15.87;;;0.40;19.40;;;;;;5020061;28;20459;-64
2022/03/04 03:42:10;;;;;;;54.77;14.63;;;0.40;19.40;;;;;;5023212;28;20479;-64
2022/03/04 03:44:37;;;;;;;52.87;16.00;;;0.40;19.20;;;;;;5020665;28;20462;-64
2022/03/04 03:47:04;;;;;;;52.17;16.20;;;0.30;19.20;;;;;;5021023;28;20490;-61
2022/03/04 03:49:32;;;;;;;59.57;19.23;;;0.30;19.20;;;;;;5016803;28;20467;-62
2022/03/04 03:51:59;;;;;;;51.33;15.83;;;0.30;19.10;;;;;;5048426;23;20507;-62
2022/03/04 03:54:26;;;;;;;56.27;17.50;;;0.30;19.20;;;;;;5066052;28;20819;-62
2022/03/04 03:56:53;;;;;;;57.10;15.80;;;0.30;19.10;;;;;;5067324;28;20464;-62
2022/03/04 03:59:19;;;;;;;57.50;16.30;;;0.30;19.10;;;;;;5061999;28;20468;-61
2022/03/04 04:01:46;;;;;;;52.73;15.50;;;0.30;19.10;;;;;;5062011;28;20488;-62
2022/03/04 04:04:13;;;;;;;55.70;17.10;;;0.30;19.10;;;;;;5063576;28;20457;-61
2022/03/04 04:06:42;;;;;;;59.93;16.00;;;0.30;19.10;;;;;;5063886;28;20492;-62
2022/03/04 04:09:10;;;;;;;53.40;14.70;;;0.30;19.10;;;;;;5059788;28;20481;-62
2022/03/04 04:11:37;;;;;;;55.50;15.87;;;0.30;18.90;;;;;;5062009;28;20477;-63
2022/03/04 04:14:05;;;;;;;55.27;14.10;;;0.20;19.30;;;;;;5060611;28;20461;-62
2022/03/04 04:16:32;;;;;;;54.17;16.20;;;0.20;18.80;;;;;;5064088;28;20445;-61
2022/03/04 04:18:59;;;;;;;57.27;16.20;;;0.20;18.80;;;;;;5066979;28;20457;-63
2022/03/04 04:21:27;;;;;;;62.17;18.33;;;0.20;18.90;;;;;;5064519;28;20469;-62
2022/03/04 04:23:56;;;;;;;54.50;16.60;;;0.20;19.00;;;;;;5064576;28;20461;-63
2022/03/04 04:26:23;;;;;;;56.83;18.30;;;0.20;19.10;;;;;;5065110;28;20484;-60
2022/03/04 04:28:51;;;;;;;52.80;15.30;;;0.20;19.20;;;;;;5063321;28;20468;-62
2022/03/04 04:31:18;;;;;;;57.43;15.40;;;0.10;19.20;;;;;;5064753;28;20538;-61
2022/03/04 04:33:45;;;;;;;57.00;15.60;;;0.20;19.40;;;;;;5058410;28;21139;-61
2022/03/04 04:36:11;;;;;;;53.10;15.90;;;0.10;19.30;;;;;;5062593;28;20461;-62
2022/03/04 04:38:38;;;;;;;57.07;16.33;;;0.10;19.50;;;;;;5064045;28;20892;-63
2022/03/04 04:41:06;;;;;;;55.27;15.13;;;0.10;19.30;;;;;;5063855;28;20465;-62
2022/03/04 04:43:33;;;;;;;55.93;16.20;;;0.10;19.50;;;;;;5060544;28;20560;-61
2022/03/04 04:46:00;;;;;;;55.57;17.80;;;0.10;19.50;;;;;;5063392;28;20799;-62
2022/03/04 04:48:27;;;;;;;51.20;15.30;;;0.00;19.50;;;;;;5066698;28;20461;-62
2022/03/04 04:50:54;;;;;;;54.00;16.40;;;0.10;19.60;;;;;;5064925;28;20461;-62
2022/03/04 04:53:21;;;;;;;58.63;17.93;;;0.00;19.50;;;;;;5060558;28;20583;-61
2022/03/04 04:55:47;;;;;;;54.73;16.90;;;0.00;19.70;;;;;;5064173;28;20468;-62
2022/03/04 04:58:15;;;;;;;56.47;16.23;;;0.00;19.70;;;;;;5067035;28;20457;-61
2022/03/04 05:00:42;;;;;;;58.10;16.70;;;0.00;19.70;;;;;;5059051;28;20484;-61
2022/03/04 05:03:09;;;;;;;55.67;16.30;;;0.00;20.00;;;;;;5060061;28;20481;-61
2022/03/04 05:05:36;;;;;;;56.67;17.90;;;-0.10;19.90;;;;;;5061391;28;20576;-64
2022/03/04 05:08:03;;;;;;;58.50;18.93;;;-0.10;20.10;;;;;;5058305;28;20506;-60
2022/03/04 05:10:30;;;;;;;56.03;17.33;;;-0.10;20.20;;;;;;5063952;28;20961;-60
2022/03/04 05:12:57;;;;;;;63.53;19.67;;;-0.10;20.20;;;;;;5066507;28;20484;-62
2022/03/04 05:15:25;;;;;;;55.20;16.80;;;-0.10;20.30;;;;;;5060011;28;20458;-60
2022/03/04 05:17:52;;;;;;;58.60;17.20;;;-0.20;20.20;;;;;;5060968;28;20465;-61
2022/03/04 05:20:19;;;;;;;56.37;16.47;;;-0.20;20.20;;;;;;5063973;28;20611;-61
2022/03/04 05:22:46;;;;;;;57.93;17.43;;;-0.20;20.40;;;;;;5065676;28;20489;-61
2022/03/04 05:25:13;;;;;;;58.90;18.30;;;-0.20;20.50;;;;;;5058352;28;20476;-63
2022/03/04 05:27:39;;;;;;;58.30;16.97;;;-0.20;20.50;;;;;;5060799;28;21144;-63
2022/03/04 05:30:07;;;;;;;58.70;17.87;;;-0.30;20.50;;;;;;5063294;28;20464;-62
2022/03/04 05:32:36;;;;;;;56.10;16.60;;;-0.30;20.40;;;;;;5068142;28;20481;-61
2022/03/04 05:35:03;;;;;;;57.67;16.07;;;-0.30;20.40;;;;;;5066708;28;20469;-62
2022/03/04 05:37:30;;;;;;;58.50;17.60;;;-0.30;20.40;;;;;;5070300;28;20814;-62
2022/03/04 05:39:57;;;;;;;57.13;16.50;;;-0.30;20.60;;;;;;5061936;28;20962;-64
2022/03/04 05:42:24;;;;;;;59.13;16.90;;;-0.30;20.60;;;;;;5067340;28;21036;-64
2022/03/04 05:44:50;;;;;;;58.90;16.53;;;-0.30;20.50;;;;;;5062147;28;20465;-63
2022/03/04 05:47:17;;;;;;;57.60;17.07;;;-0.40;20.60;;;;;;5064164;28;20827;-63
2022/03/04 05:49:45;;;;;;;58.03;18.93;;;-0.40;20.60;;;;;;5064294;28;20460;-64
2022/03/04 05:52:12;;;;;;;60.07;18.77;;;-0.40;20.80;;;;;;5060582;28;20493;-62
2022/03/04 05:54:39;;;;;;;59.87;17.30;;;-0.40;21.00;;;;;;5061006;28;20475;-62
2022/03/04 05:57:07;;;;;;;56.43;16.60;;;-0.40;21.00;;;;;;5066188;28;20460;-64
2022/03/04 05:59:34;;;;;;;61.03;19.50;;;-0.40;21.00;;;;;;5066094;28;20457;-63
2022/03/04 06:02:00;;;;;;;62.90;18.63;;;-0.40;21.10;;;;;;5057292;28;20477;-61
2022/03/04 06:04:27;;;;;;;59.80;19.90;;;-0.40;21.20;;;;;;5065590;28;20461;-62
2022/03/04 06:06:55;;;;;;;61.50;19.67;;;-0.40;21.30;;;;;;5062740;28;20484;-62
2022/03/04 06:09:27;;;;;;;66.17;19.03;;;-0.40;21.50;;;;;;5065297;28;20468;-63
2022/03/04 06:11:54;;;;;;;58.87;18.57;;;-0.20;21.70;;;;;;5065831;28;20489;-64
2022/03/04 06:14:21;;;;;;;62.27;19.23;;;-0.10;21.70;;;;;;5064935;28;20460;-61
2022/03/04 06:16:48;;;;;;;62.83;18.43;;;0.00;21.60;;;;;;5063460;28;20457;-63
2022/03/04 06:19:14;;;;;;;58.77;18.03;;;0.20;21.70;;;;;;5066885;28;20471;-63
2022/03/04 06:21:41;;;;;;;60.30;19.90;;;0.40;21.80;;;;;;5069523;28;20483;-63
2022/03/04 06:24:09;;;;;;;55.80;18.03;;;0.60;21.80;;;;;;5069340;28;20465;-62
2022/03/04 06:26:36;;;;;;;62.00;19.40;;;0.80;21.30;;;;;;5069788;28;20488;-65
2022/03/04 06:29:03;;;;;;;62.77;19.87;;;1.10;20.70;;;;;;5069235;28;21175;-62
2022/03/04 06:31:30;;;;;;;62.73;20.70;;;1.30;20.00;;;;;;5062751;28;20469;-64
2022/03/04 06:33:57;;;;;;;58.57;21.40;;;1.70;19.40;;;;;;5058671;28;20465;-64
2022/03/04 06:36:23;;;;;;;57.13;18.33;;;2.20;18.30;;;;;;5065727;28;20998;-65
2022/03/04 06:38:50;;;;;;;57.93;17.80;;;2.80;17.20;;;;;;5062530;28;20476;-62
2022/03/04 06:41:19;;;;;;;61.13;17.70;;;3.60;16.00;;;;;;5063601;28;20516;-61
2022/03/04 06:43:45;;;;;;;57.33;19.43;;;4.30;14.80;;;;;;5062859;28;20545;-63
2022/03/04 06:46:12;;;;;;;58.70;19.53;;;5.00;13.70;;;;;;5060770;28;20485;-64
2022/03/04 06:48:39;;;;;;;61.63;19.97;;;5.40;13.00;;;;;;5058762;28;20930;-63
2022/03/04 06:51:06;;;;;;;57.87;21.63;;;5.50;12.50;;;;;;5058693;28;20468;-62
2022/03/04 06:53:33;;;;;;;60.23;20.53;;;5.60;12.30;;;;;;5063720;28;21060;-64
2022/03/04 06:56:00;;;;;;;54.53;18.40;;;5.70;11.90;;;;;;5066945;28;20514;-63
2022/03/04 06:58:28;;;;;;;54.83;18.93;;;6.00;11.20;;;;;;5064080;28;20552;-65
2022/03/04 07:00:55;;;;;;;59.00;20.23;;;6.30;11.20;;;;;;5060259;28;20480;-63
2022/03/04 07:03:23;;;;;;;55.90;19.27;;;6.60;10.60;;;;;;5060615;28;20882;-64
2022/03/04 07:05:50;;;;;;;55.00;18.97;;;7.10;10.10;;;;;;5055832;28;20481;-64
2022/03/04 07:08:17;;;;;;;57.97;19.63;;;7.50;9.50;;;;;;5060772;28;20982;-63
2022/03/04 07:10:44;;;;;;;54.23;19.33;;;7.80;8.90;;;;;;5059913;28;20468;-63
2022/03/04 07:13:10;;;;;;;57.30;18.73;;;8.10;8.60;;;;;;5059489;28;20477;-63
2022/03/04 07:15:39;;;;;;;54.60;19.50;;;8.20;8.80;;;;;;5061535;28;20472;-63
2022/03/04 07:18:06;;;;;;;51.93;18.60;;;8.40;8.50;;;;;;5063776;28;20473;-65
2022/03/04 07:20:33;;;;;;;54.03;17.87;;;8.60;8.70;;;;;;5065206;28;20461;-63
2022/03/04 07:23:00;;;;;;;53.80;18.23;;;8.90;8.70;;;;;;5062573;28;20596;-63
2022/03/04 07:25:27;;;;;;;50.80;19.07;;;9.20;8.30;;;;;;5057426;28;20457;-64
2022/03/04 07:27:54;;;;;;;55.57;19.50;;;9.40;7.80;;;;;;5065562;28;20481;-63
2022/03/04 07:30:21;;;;;;;50.53;18.40;;;9.90;6.80;;;;;;5060601;28;20468;-62
2022/03/04 07:32:49;;;;;;;53.00;18.90;;;10.70;5.60;;;;;;5064071;28;20861;-62
2022/03/04 07:35:16;;;;;;;54.97;21.47;;;11.30;4.10;;;;;;5055214;28;20517;-63
2022/03/04 07:37:44;;;;;;;53.00;17.80;;;11.70;3.50;;;;;;5060022;28;20450;-65
2022/03/04 07:40:13;;;;;;;56.67;20.57;;;11.90;3.10;;;;;;5065021;28;20463;-64
2022/03/04 07:42:40;;;;;;;51.87;20.63;;;12.10;2.60;;;;;;5057446;28;20474;-64
2022/03/04 07:45:08;;;;;;;55.07;19.57;;;12.40;2.20;;;;;;5062287;28;20457;-65
2022/03/04 07:47:35;;;;;;;52.50;19.80;;;12.90;1.60;;;;;;5057158;28;20485;-64
2022/03/04 07:50:04;;;;;;;51.47;20.27;;;13.90;1.00;;;;;;5057675;28;21264;-64
2022/03/04 07:52:32;;;;;;;50.07;18.73;;;15.00;1.00;;;;;;5057993;28;20490;-65
2022/03/04 07:55:00;;;;;;;53.00;20.27;;;16.30;1.00;;;;;;5063519;28;20519;-64
2022/03/04 07:57:26;;;;;;;49.87;19.53;;;17.50;1.00;;;;;;5058755;28;20464;-64
2022/03/04 07:59:53;;;;;;;50.87;20.70;;;18.70;1.00;;;;;;5066537;28;20475;-64
2022/03/04 08:02:20;;;;;;;47.87;19.10;;;19.80;1.00;;;;;;5065405;28;20477;-63
2022/03/04 08:04:47;;;;;;;44.80;18.60;;;21.00;1.00;;;;;;5059538;28;20468;-63
2022/03/04 08:07:17;;;;;;;48.10;20.27;;;22.10;1.00;;;;;;5062801;28;20492;-62
2022/03/04 08:09:44;;;;;;;47.63;19.87;;;23.00;1.00;;;;;;5074510;28;20458;-64
2022/03/04 08:12:12;;;;;;;48.03;20.50;;;24.00;1.00;;;;;;5069246;28;20489;-64
2022/03/04 08:14:39;;;;;;;51.90;21.40;;;24.90;1.00;;;;;;5063334;28;20457;-65
2022/03/04 08:17:06;;;;;;;47.07;19.83;;;25.90;1.00;;;;;;5055936;28;20464;-63
2022/03/04 08:19:35;;;;;;;46.70;20.33;;;26.70;1.00;;;;;;5066610;28;20460;-65
2022/03/04 08:22:02;;;;;;;43.90;20.40;;;27.60;1.00;;;;;;5059259;28;20950;-63
2022/03/04 08:24:31;;;;;;;43.83;19.93;;;28.20;1.00;;;;;;5063685;28;20461;-64
2022/03/04 08:26:57;;;;;;;44.50;20.27;;;28.90;1.00;;;;;;5062309;28;20480;-65
2022/03/04 08:29:24;;;;;;;43.17;20.23;;;29.50;1.00;;;;;;5062965;28;20457;-65
2022/03/04 08:31:51;;;;;;;43.20;19.50;;;30.00;1.00;;;;;;5057082;28;20485;-63
2022/03/04 08:34:18;;;;;;;43.60;20.37;;;30.40;1.00;;;;;;5060867;28;20588;-63
2022/03/04 08:36:44;;;;;;;45.97;21.33;;;31.00;1.00;;;;;;5061461;28;20473;-63
2022/03/04 08:39:11;;;;;;;45.97;19.83;;;31.60;1.00;;;;;;5056974;28;20471;-63
2022/03/04 08:41:41;;;;;;;44.00;19.97;;;32.00;1.00;;;;;;5064500;28;20492;-64
2022/03/04 08:44:08;;;;;;;44.67;21.70;;;31.90;1.00;;;;;;5059947;28;20469;-65
2022/03/04 08:46:35;;;;;;;44.50;21.50;;;31.20;1.00;;;;;;5058021;28;20477;-65
2022/03/04 08:49:02;;;;;;;44.40;20.57;;;31.40;1.00;;;;;;5055920;28;20465;-65
2022/03/04 08:51:29;;;;;;;44.07;21.50;;;31.90;1.00;;;;;;5059045;28;20465;-65
2022/03/04 08:53:56;;;;;;;45.00;21.13;;;32.20;1.00;;;;;;5059208;28;20468;-65
2022/03/04 08:56:23;;;;;;;43.23;20.33;;;31.90;1.00;;;;;;5059935;28;20465;-64
2022/03/04 08:58:51;;;;;;;42.57;20.13;;;32.30;1.00;;;;;;5059186;28;20476;-66
2022/03/04 09:01:18;;;;;;;42.40;20.90;;;33.00;1.00;;;;;;5055990;28;20492;-65
2022/03/04 09:03:45;;;;;;;41.27;19.03;;;33.60;1.00;;;;;;5055727;28;20465;-65
2022/03/04 09:06:12;;;;;;;44.80;21.07;;;34.00;1.00;;;;;;5058054;28;20461;-61
2022/03/04 09:08:39;;;;;;;42.87;20.60;;;33.50;1.00;;;;;;5059168;28;20468;-60
2022/03/04 09:11:07;;;;;;;41.50;19.87;;;33.70;1.00;;;;;;5055179;28;21152;-61
2022/03/04 09:13:34;;;;;;;42.43;20.60;;;34.00;1.00;;;;;;5055763;28;21005;-62
2022/03/04 09:16:02;;;;;;;42.20;20.47;;;34.70;1.00;;;;;;5055776;28;20471;-61
2022/03/04 09:18:29;;;;;;;43.67;21.90;;;34.80;1.00;;;;;;5057409;28;20885;-60
2022/03/04 09:20:56;;;;;;;39.80;19.30;;;35.30;1.00;;;;;;5057746;28;20458;-63
2022/03/04 09:23:23;;;;;;;40.17;19.73;;;35.90;1.00;;;;;;5064208;28;20473;-62
2022/03/04 09:25:51;;;;;;;41.53;20.30;;;36.30;1.00;;;;;;5062695;28;20449;-61
2022/03/04 09:28:18;;;;;;;40.17;20.60;;;36.70;1.00;;;;;;5056397;28;20485;-62
2022/03/04 09:30:45;;;;;;;41.50;21.10;;;36.80;1.00;;;;;;5060973;28;20461;-61
2022/03/04 09:33:13;;;;;;;40.53;20.67;;;36.80;1.00;;;;;;5055140;28;21052;-62
2022/03/04 09:35:40;;;;;;;39.90;20.00;;;37.00;1.00;;;;;;5059345;28;20461;-63
2022/03/04 09:38:07;;;;;;;41.13;20.53;;;36.50;1.00;;;;;;5051562;28;20461;-63
2022/03/04 09:40:34;;;;;;;40.33;19.47;;;36.00;1.00;;;;;;5053414;28;20471;-60
2022/03/04 09:43:01;;;;;;;43.30;21.20;;;35.40;1.00;;;;;;5060643;28;20481;-62
2022/03/04 09:45:30;;;;;;;43.70;19.87;;;35.10;1.00;;;;;;5063014;28;20465;-61
2022/03/04 09:47:57;;;;;;;39.73;18.03;;;35.00;1.00;;;;;;5060340;28;20576;-60
2022/03/04 09:50:28;;;;;;;41.17;19.50;;;35.60;1.00;;;;;;5060097;28;20842;-61
2022/03/04 09:52:55;;;;;;;41.70;21.97;;;35.80;1.00;;;;;;5075070;22;20621;-66
2022/03/04 09:55:22;;;;;;;42.47;20.70;;;35.80;1.00;;;;;;5016544;28;20548;-63
2022/03/04 09:57:48;;;;;;;41.90;20.80;;;35.90;1.00;;;;;;5023170;28;20964;-63
2022/03/04 10:00:16;;;;;;;40.17;19.43;;;36.30;1.00;;;;;;5018713;28;20877;-63
2022/03/04 10:02:43;;;;;;;40.40;19.87;;;36.50;1.00;;;;;;5019017;28;20471;-67
2022/03/04 10:05:10;;;;;;;43.00;20.60;;;35.90;1.00;;;;;;5019756;28;20471;-66
2022/03/04 10:07:43;;;;;;;42.23;19.50;;;35.70;1.00;;;;;;5017995;28;20627;-66
2022/03/04 10:10:12;;;;;;;43.47;20.57;;;34.30;1.00;;;;;;5016654;28;20471;-66
2022/03/04 10:12:50;;;;;;;42.43;20.30;;;33.30;1.00;;;;;;5024968;28;20470;-65
2022/03/04 10:15:17;;;;;;;43.20;20.17;;;32.20;1.00;;;;;;5026125;28;20470;-65
2022/03/04 10:17:58;;;;;;;43.13;20.67;;;32.20;1.00;;;;;;5023984;28;20463;-67
2022/03/04 10:20:33;;;;;;;42.30;20.80;;;32.10;1.00;;;;;;5023018;28;20462;-66
2022/03/04 10:23:16;;;;;;;41.57;20.13;;;32.00;1.00;;;;;;5025861;28;20478;-64
2022/03/04 10:25:44;;;;;;;41.60;19.47;;;32.60;1.00;;;;;;5027301;28;21001;-67
2022/03/04 10:28:12;;;;;;;41.97;20.13;;;33.30;1.00;;;;;;5023265;28;20544;-68
2022/03/04 10:30:45;;;;;;;43.87;22.47;;;33.80;1.00;;;;;;5020367;28;20488;-67
2022/03/04 10:33:16;;;;;;;41.60;19.83;;;34.00;1.00;;;;;;5021055;28;20493;-66
2022/03/04 10:35:43;;;;;;;47.53;21.57;;;34.10;1.00;;;;;;5023122;28;20459;-65
2022/03/04 10:38:22;;;;;;;41.87;19.90;;;34.40;1.00;;;;;;5024492;28;20738;-64
2022/03/04 10:40:49;;;;;;;43.50;20.73;;;34.80;1.00;;;;;;5023891;28;20467;-64
2022/03/04 10:43:23;;;;;;;39.50;18.73;;;34.90;1.00;;;;;;5019786;28;20490;-69
2022/03/04 10:46:00;;;;;;;43.27;20.67;;;34.90;1.00;;;;;;5020124;28;20483;-71
2022/03/04 10:48:27;;;;;;;41.90;21.40;;;34.50;1.00;;;;;;5021143;28;20490;-67
2022/03/04 10:50:55;;;;;;;42.93;20.33;;;34.30;1.00;;;;;;5021403;28;20459;-68
2022/03/04 10:53:25;;;;;;;42.07;20.63;;;33.80;1.00;;;;;;5021697;28;21013;-66
2022/03/04 10:55:54;;;;;;;44.30;20.90;;;33.20;1.00;;;;;;5023910;28;20462;-67
2022/03/04 10:58:24;;;;;;;44.10;21.00;;;32.90;1.00;;;;;;5022885;28;21032;-67
2022/03/04 11:00:52;;;;;;;44.20;21.90;;;33.10;1.00;;;;;;5025949;28;20479;-67
2022/03/04 11:03:21;;;;;;;46.17;22.37;;;33.20;1.00;;;;;;5024017;28;20486;-68
2022/03/04 11:05:49;;;;;;;43.20;19.80;;;33.40;1.00;;;;;;5024972;28;20854;-69
2022/03/04 11:08:17;;;;;;;42.00;19.50;;;33.20;1.00;;;;;;5027005;28;20517;-64
2022/03/04 11:10:45;;;;;;;41.00;18.53;;;32.50;1.00;;;;;;5025822;28;20479;-68
2022/03/04 11:13:13;;;;;;;41.70;19.63;;;31.80;1.00;;;;;;5025758;28;20521;-68
2022/03/04 11:15:41;;;;;;;42.77;19.93;;;31.70;1.00;;;;;;5022714;28;20462;-66
2022/03/04 11:18:09;;;;;;;46.37;20.47;;;30.50;1.00;;;;;;5027664;28;20462;-70
2022/03/04 11:20:37;;;;;;;44.57;20.50;;;30.00;1.00;;;;;;5026955;28;20969;-65
2022/03/04 11:23:05;;;;;;;48.00;22.20;;;30.30;1.00;;;;;;5020156;28;20656;-66
2022/03/04 11:25:36;;;;;;;44.70;19.87;;;30.80;1.00;;;;;;5025165;28;20467;-71
2022/03/04 11:28:12;;;;;;;43.90;22.37;;;31.00;1.00;;;;;;5024513;28;20482;-67
2022/03/04 11:30:44;;;;;;;44.60;20.43;;;30.90;1.00;;;;;;5021851;28;20465;-65
2022/03/04 11:33:19;;;;;;;43.07;19.93;;;30.60;1.00;;;;;;5018834;28;20491;-66
2022/03/04 11:36:13;;;;;;;43.00;19.10;;;30.20;1.00;;;;;;5019535;28;20463;-67
2022/03/04 11:39:09;;;;;;;43.00;19.13;;;29.50;1.00;;;;;;5021419;28;20470;-64
2022/03/04 11:41:55;;;;;;;44.67;20.70;;;28.10;1.00;;;;;;5024352;28;20466;-63
2022/03/04 11:44:24;;;;;;;44.60;19.87;;;27.60;1.00;;;;;;5013972;28;20482;-71
2022/03/04 11:46:58;;;;;;;44.27;19.97;;;26.50;1.00;;;;;;5023875;28;20455;-65
2022/03/04 11:49:33;;;;;;;43.83;18.90;;;25.20;1.00;;;;;;5021522;28;20458;-66
2022/03/04 11:52:24;;;;;;;43.40;17.40;;;24.00;1.00;;;;;;5023080;28;20462;-67
2022/03/04 11:55:26;;;;;;;44.97;18.27;;;22.80;1.00;;;;;;5019134;28;20498;-63
2022/03/04 11:58:03;;;;;;;44.93;19.07;;;22.20;1.00;;;;;;5021172;28;20485;-66
2022/03/04 12:00:36;;;;;;;47.00;18.73;;;21.80;1.00;;;;;;5020995;28;20488;-68
2022/03/04 12:03:21;;;;;;;48.63;20.83;;;21.50;1.00;;;;;;5023934;28;20493;-66
2022/03/04 12:05:50;;;;;;;47.60;19.00;;;21.50;1.00;;;;;;5016978;28;20494;-67
2022/03/04 12:08:18;;;;;;;46.50;18.53;;;21.50;1.00;;;;;;5020399;28;20486;-66
2022/03/04 12:10:48;;;;;;;47.93;19.60;;;21.20;1.00;;;;;;5025283;28;20980;-66
2022/03/04 12:13:19;;;;;;;46.60;18.80;;;21.00;1.00;;;;;;5023270;28;20587;-67
2022/03/04 12:15:51;;;;;;;47.40;19.50;;;21.00;1.00;;;;;;5022418;28;20467;-64
2022/03/04 12:18:26;;;;;;;47.17;19.10;;;20.80;1.00;;;;;;5016799;28;20463;-65
2022/03/04 12:21:10;;;;;;;46.40;18.40;;;20.50;1.00;;;;;;5019348;28;20523;-67
2022/03/04 12:23:45;;;;;;;44.93;17.63;;;20.70;1.00;;;;;;5023399;28;20914;-64
2022/03/04 12:26:20;;;;;;;48.53;19.00;;;20.80;1.00;;;;;;5020703;28;21198;-61
2022/03/04 12:28:48;;;;;;;46.30;18.90;;;21.00;1.00;;;;;;5019739;28;20490;-59
2022/03/04 12:31:26;;;;;;;43.30;16.23;;;20.90;1.00;;;;;;5021893;28;20474;-60
2022/03/04 12:33:56;;;;;;;45.07;15.20;;;20.90;1.00;;;;;;5024047;28;20482;-61
2022/03/04 12:36:25;;;;;;;44.20;15.97;;;20.80;1.00;;;;;;5018997;28;20477;-61
2022/03/04 12:38:54;;;;;;;43.43;16.20;;;20.50;1.00;;;;;;5024239;28;20470;-61
2022/03/04 12:41:23;;;;;;;42.73;14.50;;;20.10;1.00;;;;;;5023793;28;20462;-63